createdAt,value
2023-04-17T00:02:20.671Z,4.82
2023-04-17T00:05:10.371Z,4.32
2023-04-17T00:08:01.392Z,4.50
2023-04-17T00:11:00.152Z,4.13
2023-04-17T00:13:52.698Z,4.43
2023-04-17T00:16:41.764Z,4.35
2023-04-17T00:19:33.441Z,4.10
2023-04-17T00:22:21.981Z,4.20
2023-04-17T00:25:15.968Z,4.50
2023-04-17T00:28:03.821Z,4.40
2023-04-17T00:30:52.585Z,4.38
2023-04-17T00:33:43.461Z,4.22
2023-04-17T00:36:35.183Z,4.53
2023-04-17T00:39:25.192Z,3.95
2023-04-17T00:42:26.331Z,4.07
2023-04-17T00:45:15.201Z,4.25
2023-04-17T00:48:07.357Z,4.57
2023-04-17T00:50:55.976Z,4.33
2023-04-17T00:53:47.658Z,4.45
2023-04-17T00:56:36.263Z,4.20
2023-04-17T00:59:32.783Z,4.30
2023-04-17T01:02:28.265Z,4.00
2023-04-17T01:05:19.274Z,3.88
2023-04-17T01:08:28.108Z,4.20
2023-04-17T01:11:18.698Z,3.95
2023-04-17T01:14:11.714Z,3.97
2023-04-17T01:17:12.801Z,3.95
2023-04-17T01:20:01.567Z,4.00
2023-04-17T01:22:58.238Z,4.68
2023-04-17T01:25:52.048Z,4.10
2023-04-17T01:28:46.237Z,3.85
2023-04-17T01:31:42.676Z,3.80
2023-04-17T01:34:44.694Z,3.83
2023-04-17T01:37:46.542Z,3.85
2023-04-17T01:40:46.709Z,4.07
2023-04-17T01:43:48.664Z,3.85
2023-04-17T01:46:51.361Z,3.90
2023-04-17T01:49:40.409Z,4.10
2023-04-17T01:55:45.618Z,3.55
2023-04-17T01:58:54.536Z,3.70
2023-04-17T02:01:45.497Z,3.70
2023-04-17T02:04:45.912Z,3.55
2023-04-17T02:07:43.963Z,3.72
2023-04-17T02:10:40.177Z,4.13
2023-04-17T02:13:42.822Z,3.33
2023-04-17T02:16:41.016Z,3.53
2023-04-17T02:19:41.067Z,3.53
2023-04-17T02:22:45.790Z,3.30
2023-04-17T02:25:48.498Z,3.80
2023-04-17T02:28:40.077Z,3.70
2023-04-17T02:31:44.175Z,3.58
2023-04-17T02:34:42.547Z,3.17
2023-04-17T02:38:06.284Z,3.78
2023-04-17T02:41:08.590Z,3.00
2023-04-17T02:44:06.849Z,3.07
2023-04-17T02:47:09.551Z,3.05
2023-04-17T02:50:12.799Z,3.30
2023-04-17T02:56:23.604Z,3.40
2023-04-17T02:59:23.990Z,3.00
2023-04-17T03:02:16.743Z,3.13
2023-04-17T03:05:17.768Z,2.97
2023-04-17T03:08:25.203Z,2.65
2023-04-17T03:11:19.195Z,3.10
2023-04-17T03:14:17.897Z,3.08
2023-04-17T03:17:14.247Z,3.03
2023-04-17T03:20:19.990Z,2.97
2023-04-17T03:23:10.480Z,2.75
2023-04-17T03:26:03.508Z,3.42
2023-04-17T03:29:03.817Z,3.17
2023-04-17T03:32:15.337Z,3.00
2023-04-17T03:39:02.252Z,3.03
2023-04-17T03:42:05.093Z,3.13
2023-04-17T03:45:01.412Z,2.58
2023-04-17T03:47:57.501Z,2.90
2023-04-17T03:51:05.841Z,3.03
2023-04-17T03:54:02.376Z,3.15
2023-04-17T03:57:07.922Z,3.15
2023-04-17T04:00:10.769Z,3.03
2023-04-17T04:03:09.255Z,3.20
2023-04-17T04:06:04.171Z,3.90
2023-04-17T04:09:06.444Z,4.07
2023-04-17T04:12:01.824Z,3.35
2023-04-17T04:15:11.930Z,3.53
2023-04-17T04:18:17.078Z,3.47
2023-04-17T04:21:21.674Z,3.65
2023-04-17T04:24:15.809Z,3.25
2023-04-17T04:27:12.143Z,3.83
2023-04-17T04:30:10.256Z,3.67
2023-04-17T04:33:22.987Z,3.22
2023-04-17T04:36:30.170Z,2.90
2023-04-17T04:39:32.074Z,3.35
2023-04-17T04:42:38.800Z,3.20
2023-04-17T04:45:51.745Z,3.85
2023-04-17T04:48:45.760Z,3.42
2023-04-17T04:51:42.760Z,3.30
2023-04-17T04:54:31.380Z,3.65
2023-04-17T04:57:25.087Z,3.47
2023-04-17T05:00:24.203Z,3.95
2023-04-17T05:03:24.212Z,3.20
2023-04-17T05:06:24.383Z,4.13
2023-04-17T05:09:17.105Z,3.80
2023-04-17T05:12:20.440Z,3.28
2023-04-17T05:15:13.309Z,3.42
2023-04-17T05:20:49.388Z,3.67
2023-04-17T05:23:44.369Z,3.58
2023-04-17T05:26:50.837Z,3.97
2023-04-17T05:29:48.833Z,3.42
2023-04-17T05:32:46.813Z,3.50
2023-04-17T05:35:38.605Z,3.80
2023-04-17T05:38:35.708Z,3.60
2023-04-17T05:41:58.732Z,4.00
2023-04-17T05:45:03.890Z,3.63
2023-04-17T05:48:17.015Z,4.18
2023-04-17T05:51:23.348Z,3.95
2023-04-17T05:54:17.187Z,3.35
2023-04-17T05:57:22.854Z,3.78
2023-04-17T06:00:19.463Z,4.28
2023-04-17T06:03:41.001Z,4.18
2023-04-17T06:06:29.629Z,3.80
2023-04-17T06:09:34.117Z,3.95
2023-04-17T06:15:44.176Z,3.78
2023-04-17T06:19:01.706Z,4.30
2023-04-17T06:22:07.126Z,3.90
2023-04-17T06:25:13.024Z,4.25
2023-04-17T06:28:22.897Z,3.88
2023-04-17T06:31:58.362Z,4.07
2023-04-17T06:34:59.448Z,3.95
2023-04-17T06:38:18.871Z,3.17
2023-04-17T06:47:33.414Z,3.70
2023-04-17T06:51:12.546Z,4.07
2023-04-17T06:58:48.715Z,3.95
2023-04-17T07:01:38.232Z,3.90
2023-04-17T07:04:39.727Z,4.10
2023-04-17T07:08:02.400Z,4.03
2023-04-17T07:11:10.480Z,3.95
2023-04-17T07:14:37.649Z,4.40
2023-04-17T07:21:10.372Z,4.07
2023-04-17T07:24:10.811Z,4.30
2023-04-17T07:30:44.960Z,3.40
2023-04-17T07:34:09.861Z,4.18
2023-04-17T07:40:56.341Z,3.47
2023-04-17T07:44:07.831Z,3.97
2023-04-17T07:47:38.014Z,4.40
2023-04-17T07:50:37.006Z,4.22
2023-04-17T07:54:30.391Z,4.78
2023-04-17T08:01:07.330Z,5.32
2023-04-17T08:07:34.239Z,4.07
2023-04-17T08:10:47.088Z,4.82
2023-04-17T08:14:01.267Z,6.05
2023-04-17T08:17:12.682Z,6.32
2023-04-17T08:20:12.037Z,4.85
2023-04-17T08:23:14.227Z,4.72
2023-04-17T08:26:17.374Z,4.65
2023-04-17T08:29:24.715Z,4.85
2023-04-17T08:32:52.523Z,5.95
2023-04-17T08:35:57.152Z,3.75
2023-04-17T08:39:19.029Z,4.65
2023-04-17T08:49:58.191Z,5.35
2023-04-17T08:56:36.086Z,6.38
2023-04-17T08:59:47.140Z,6.30
2023-04-17T09:03:05.092Z,6.45
2023-04-17T09:06:02.793Z,6.50
2023-04-17T09:09:04.638Z,4.85
2023-04-17T09:12:12.015Z,5.43
2023-04-17T09:15:24.568Z,5.30
2023-04-17T09:18:32.202Z,4.63
2023-04-17T09:21:34.530Z,5.15
2023-04-17T09:24:52.109Z,5.05
2023-04-17T09:27:49.921Z,4.47
2023-04-17T09:30:55.608Z,4.30
2023-04-17T09:34:02.941Z,5.30
2023-04-17T09:37:13.050Z,6.88
2023-04-17T09:40:13.616Z,6.53
2023-04-17T09:43:09.791Z,5.72
2023-04-17T09:46:12.412Z,5.90
2023-04-17T09:49:21.139Z,5.80
2023-04-17T09:52:23.130Z,6.32
2023-04-17T09:55:19.471Z,5.33
2023-04-17T09:58:27.184Z,4.50
2023-04-17T10:02:28.904Z,5.05
2023-04-17T10:05:48.389Z,4.30
2023-04-17T10:08:52.252Z,4.53
2023-04-17T10:11:50.065Z,3.90
2023-04-17T10:14:46.999Z,4.22
2023-04-17T10:17:49.309Z,4.20
2023-04-17T10:20:57.273Z,4.03
2023-04-17T10:24:06.733Z,3.38
2023-04-17T10:26:58.604Z,4.18
2023-04-17T10:30:17.502Z,4.93
2023-04-17T10:33:31.709Z,5.30
2023-04-17T10:36:56.528Z,5.00
2023-04-17T10:40:03.142Z,6.03
2023-04-17T10:43:14.848Z,4.93
2023-04-17T10:46:14.478Z,6.30
2023-04-17T10:49:12.209Z,6.45
2023-04-17T10:52:05.328Z,5.32
2023-04-17T10:55:08.663Z,5.15
2023-04-17T10:58:22.132Z,4.55
2023-04-17T11:04:56.323Z,3.30
2023-04-17T11:07:58.659Z,3.10
2023-04-17T11:14:24.197Z,2.95
2023-04-17T11:17:24.276Z,2.83
2023-04-17T11:20:15.219Z,2.92
2023-04-17T11:23:15.111Z,2.80
2023-04-17T11:26:20.769Z,2.60
2023-04-17T11:29:30.846Z,3.20
2023-04-17T11:32:46.441Z,3.10
2023-04-17T11:35:57.218Z,2.47
2023-04-17T11:39:05.532Z,3.25
2023-04-17T11:42:01.481Z,3.10
2023-04-17T11:44:53.663Z,2.53
2023-04-17T11:47:51.322Z,2.88
2023-04-17T11:51:03.035Z,2.65
2023-04-17T11:54:02.079Z,2.28
2023-04-17T11:57:03.929Z,1.98
2023-04-17T11:59:59.447Z,2.58
2023-04-17T12:02:53.341Z,2.45
2023-04-17T12:06:06.831Z,2.70
2023-04-17T12:09:01.895Z,2.35
2023-04-17T12:12:07.972Z,1.60
2023-04-17T12:15:16.908Z,1.63
2023-04-17T12:18:16.507Z,1.98
2023-04-17T12:21:27.193Z,2.50
2023-04-17T12:24:33.913Z,2.25
2023-04-17T12:34:09.417Z,2.63
2023-04-17T12:37:29.464Z,2.60
2023-04-17T12:41:09.435Z,2.78
2023-04-17T12:44:15.269Z,3.85
2023-04-17T12:47:42.620Z,2.35
2023-04-17T12:51:10.837Z,3.45
2023-04-17T12:54:10.870Z,2.90
2023-04-17T12:57:30.168Z,4.43
2023-04-17T13:00:47.022Z,5.53
2023-04-17T13:03:59.509Z,3.88
2023-04-17T13:07:36.748Z,4.93
2023-04-17T13:10:38.759Z,2.42
2023-04-17T13:15:12.130Z,4.03
2023-04-17T13:16:54.514Z,2.90
2023-04-17T13:19:55.202Z,2.35
2023-04-17T13:22:55.412Z,2.65
2023-04-17T13:26:02.946Z,3.03
2023-04-17T13:29:06.673Z,2.60
2023-04-17T13:32:25.058Z,2.50
2023-04-17T13:35:36.100Z,2.17
2023-04-17T13:38:53.679Z,3.13
2023-04-17T13:41:43.642Z,2.55
2023-04-17T13:44:35.894Z,4.18
2023-04-17T13:47:33.284Z,2.47
2023-04-17T13:50:47.009Z,2.50
2023-04-17T13:53:52.722Z,2.47
2023-04-17T13:56:50.225Z,2.35
2023-04-17T13:59:51.229Z,2.28
2023-04-17T14:03:07.391Z,3.65
2023-04-17T14:05:55.139Z,2.20
2023-04-17T14:08:46.445Z,2.25
2023-04-17T14:15:08.580Z,2.70
2023-04-17T14:18:32.147Z,2.05
2023-04-17T14:21:52.714Z,1.50
2023-04-17T14:25:08.549Z,4.95
2023-04-17T14:28:26.028Z,2.30
2023-04-17T14:31:57.823Z,2.85
2023-04-17T14:34:55.397Z,2.85
2023-04-17T14:38:17.368Z,2.20
2023-04-17T14:41:42.410Z,1.77
2023-04-17T14:44:47.492Z,2.40
2023-04-17T14:48:21.397Z,3.08
2023-04-17T14:51:48.069Z,3.00
2023-04-17T14:58:25.616Z,2.42
2023-04-17T15:01:49.152Z,1.67
2023-04-17T15:04:59.978Z,1.65
2023-04-17T15:08:00.913Z,1.33
2023-04-17T15:11:29.273Z,2.60
2023-04-17T15:14:29.236Z,1.90
2023-04-17T15:17:18.580Z,2.25
2023-04-17T15:20:08.927Z,4.97
2023-04-17T15:23:28.499Z,4.20
2023-04-17T15:26:16.465Z,3.97
2023-04-17T15:29:11.027Z,3.35
2023-04-17T15:32:17.289Z,2.25
2023-04-17T15:35:14.626Z,2.65
2023-04-17T15:47:05.411Z,2.40
2023-04-17T15:50:34.357Z,2.30
2023-04-17T15:58:25.313Z,3.42
2023-04-17T16:06:52.168Z,3.45
2023-04-17T16:15:36.584Z,3.65
2023-04-17T16:23:43.782Z,3.90
2023-04-17T16:27:25.266Z,3.90
2023-04-17T16:31:04.467Z,3.90
2023-04-17T16:34:24.578Z,4.93
2023-04-17T16:38:00.880Z,5.32
2023-04-17T16:44:57.961Z,3.33
2023-04-17T16:51:44.841Z,3.60
2023-04-17T17:09:46.387Z,5.47
2023-04-17T17:13:32.539Z,5.03
2023-04-17T17:17:11.357Z,5.80
2023-04-17T17:20:37.729Z,4.78
2023-04-17T17:25:09.212Z,4.80
2023-04-17T17:27:27.214Z,4.78
2023-04-17T17:30:57.766Z,5.07
2023-04-17T17:34:28.533Z,8.38
2023-04-17T17:42:03.618Z,7.38
2023-04-17T17:45:00.677Z,8.40
2023-04-17T17:47:19.184Z,6.05
2023-04-17T17:48:11.728Z,9.15
2023-04-17T17:51:32.193Z,8.55
2023-04-17T17:54:52.588Z,8.55
2023-04-17T17:58:04.684Z,9.85
2023-04-17T18:01:03.192Z,9.73
2023-04-17T18:04:28.983Z,11.50
2023-04-17T18:07:23.887Z,9.18
2023-04-17T18:10:37.381Z,10.68
2023-04-17T18:14:02.875Z,9.13
2023-04-17T18:17:32.730Z,9.05
2023-04-17T18:20:50.292Z,8.82
2023-04-17T18:23:57.005Z,9.00
2023-04-17T18:27:44.517Z,9.27
2023-04-17T18:36:20.659Z,8.23
2023-04-17T18:39:16.734Z,8.27
2023-04-17T18:42:18.359Z,8.13
2023-04-17T18:45:26.584Z,8.38
2023-04-17T18:48:42.165Z,7.43
2023-04-17T18:55:21.091Z,7.57
2023-04-17T18:58:29.687Z,7.95
2023-04-17T19:03:12.643Z,8.80
2023-04-17T19:06:29.063Z,7.53
2023-04-17T19:09:26.047Z,7.80
2023-04-17T19:13:01.873Z,8.48
2023-04-17T19:16:17.244Z,7.57
2023-04-17T19:19:20.550Z,7.78
2023-04-17T19:25:20.681Z,8.02
2023-04-17T19:29:07.678Z,9.43
2023-04-17T19:32:19.868Z,7.18
2023-04-17T19:35:14.599Z,6.95
2023-04-17T19:38:34.671Z,6.53
2023-04-17T19:41:32.274Z,6.63
2023-04-17T19:44:39.185Z,7.65
2023-04-17T19:47:40.023Z,7.57
2023-04-17T19:51:00.540Z,7.55
2023-04-17T19:53:57.843Z,7.82
2023-04-17T19:56:49.571Z,7.90
2023-04-17T19:59:57.843Z,9.35
2023-04-17T20:03:14.099Z,9.48
2023-04-17T20:06:22.522Z,9.93
2023-04-17T20:10:02.955Z,9.55
2023-04-17T20:13:05.217Z,9.10
2023-04-17T20:17:10.329Z,9.00
2023-04-17T20:20:44.679Z,8.10
2023-04-17T20:24:03.866Z,7.15
2023-04-17T20:27:11.039Z,8.30
2023-04-17T20:30:46.801Z,7.25
2023-04-17T20:34:09.828Z,7.25
2023-04-17T20:37:34.621Z,7.15
2023-04-17T20:47:56.049Z,6.82
2023-04-17T20:51:20.773Z,6.00
2023-04-17T20:54:57.606Z,6.00
2023-04-17T20:58:07.776Z,6.13
2023-04-17T21:02:03.673Z,6.05
2023-04-17T21:05:16.011Z,6.18
2023-04-17T21:08:24.755Z,5.63
2023-04-17T21:11:55.708Z,6.20
2023-04-17T21:14:55.922Z,6.45
2023-04-17T21:18:03.733Z,6.05
2023-04-17T21:21:13.656Z,6.13
2023-04-17T21:24:16.849Z,6.18
2023-04-17T21:27:58.444Z,6.75
2023-04-17T21:30:56.103Z,5.95
2023-04-17T21:34:18.375Z,6.90
2023-04-17T21:37:13.872Z,5.90
2023-04-17T21:40:33.015Z,6.20
2023-04-17T21:43:29.984Z,6.07
2023-04-17T21:46:32.787Z,6.88
2023-04-17T21:49:41.300Z,6.63
2023-04-17T21:52:59.130Z,6.43
2023-04-17T21:55:54.701Z,6.78
2023-04-17T21:59:17.434Z,6.38
2023-04-17T22:02:41.869Z,6.43
2023-04-17T22:05:39.503Z,7.55
2023-04-17T22:08:49.722Z,6.50
2023-04-17T22:11:58.322Z,6.00
2023-04-17T22:15:03.541Z,6.55
2023-04-17T22:18:06.468Z,6.07
2023-04-17T22:20:58.273Z,6.30
2023-04-17T22:23:54.922Z,6.50
2023-04-17T22:26:45.738Z,6.68
2023-04-17T22:30:08.936Z,6.70
2023-04-17T22:33:12.440Z,7.22
2023-04-17T22:36:09.646Z,6.20
2023-04-17T22:39:07.729Z,7.63
2023-04-17T22:42:05.992Z,6.50
2023-04-17T22:45:04.396Z,7.45
2023-04-17T22:48:12.293Z,7.00
2023-04-17T22:51:09.777Z,7.03
2023-04-17T22:54:11.593Z,6.78
2023-04-17T22:57:24.191Z,6.25
2023-04-17T23:00:29.630Z,6.53
2023-04-17T23:03:22.864Z,6.68
2023-04-17T23:06:24.094Z,6.60
2023-04-17T23:09:31.390Z,6.35
2023-04-17T23:12:29.857Z,6.53
2023-04-17T23:15:25.804Z,6.55
2023-04-17T23:18:23.036Z,6.95
2023-04-17T23:21:28.679Z,7.05
2023-04-17T23:24:44.438Z,7.15
2023-04-17T23:27:45.032Z,7.18
2023-04-17T23:30:51.143Z,7.13
2023-04-17T23:33:50.110Z,8.50
2023-04-17T23:36:50.413Z,9.43
2023-04-17T23:39:50.507Z,8.50
2023-04-17T23:45:55.866Z,7.05
2023-04-17T23:48:58.543Z,7.82
2023-04-17T23:52:01.074Z,8.00
2023-04-17T23:55:02.155Z,7.55
2023-04-17T23:58:19.729Z,6.60
